Toronto, Ontario

10:48 PM EST on February 10, 2016 (GMT -0500)
Toronto-City Centre | | Change Station
CLOSE
Current Station
Airport
Location: Toronto,
Elevation: 253 ft
Nearby Weather Stations

Elev 253 ft 43.63 °N, 79.40 °W | Updated 8 minutes ago

Light Snow
Light Snow
16 °F
Feels Like 2 °F
N
13
Wind Variable Wind from NW

Today
High -- | Low -- °F
--% Chance of Precip.
Yesterday
High -- | Low -- °F
Precip. -- in
Pressure 29.85 in
Visibility 8.0 miles
Clouds Mostly Cloudy 2400 ft
Overcast 3000 ft
Windchill 2 °F
Dew Point 9 °F
Humidity 73%
Rainfall 0.00 in
Snow Depth Not available.
7:23 AM 5:40 PM
Waxing Crescent, 9% visible
SPECI CYTZ 110340Z AUTO 32011KT 8SM -SN BKN024 OVC030 M09/M13 A2983 RMK SLP106
Pressure 29.85 in
Visibility 8.0 miles
Clouds Mostly Cloudy 2400 ft
Overcast 3000 ft
Windchill 2 °F
Dew Point 9 °F
Humidity 73%
Rainfall 0.00 in
Snow Depth Not available.
7:23 AM 5:40 PM
Waxing Crescent, 9% visible
SPECI CYTZ 110340Z AUTO 32011KT 8SM -SN BKN024 OVC030 M09/M13 A2983 RMK SLP106

10-Day Weather Forecast

Almanac

Astronomy

Feb. 10, 2016 Rise Set
Actual Time
Civil Twilight
Nautical Twilight
Astronomical Twilight
Moon
Length of Visible Light
Length of Day
Tomorrow will be .
, % of the Moon is Illuminated

Today's Extremes

Country Highs Country Lows

Community

WunderPhotos

Upload Photos

1,892,000 photos uploaded!

WunderBlog® & News

Nearby

Air Quality

  Air Quality AQ Index Pollutant
Not available.

Snow Depth

Station Depth Elevation

Earthquake Activity

City Distance Mag. Time & Date
Minimum magnitude displayed is 2.5.

Coastal Water Temperatures

Place Temperature

Stations

Nearby Weather Stations

Station Location Temp. Windchill Dew Point Humidity Wind Precip. Elev Updated Type
                   

Watches & Warnings

There are currently no watches in effect.